• Join FlightAware (Why Join?)
  • Login
  • US Flag 
09:13AM EST


 

Airport Tracker/Info


-or-


 

Live Flight TrackerFlight Track Log ✈ QXE2079 ✈ 05-Jul-2013 ✈ KALW - KSEA

Flight Track Log - Related Links

Times and Time Zones

All times are in EDT time to prevent confusion due to time zone crossing. See the QXE2079 flight status page for this flight to view local times or setup timezone preferences in your user account.

Time Position Orientation Groundspeed Altitude Reporting Facility
EDT Latitude Longitude Course Direction KTS MPH feet Rate Location/Type
05:10PM 46.1977 -118.8216 286° West  Level FlightAware Approximate
05:11PM 46.2190 -118.9219 287° West  Level FlightAware Approximate
05:12PM 46.2405 -119.0222 287° West  Level FlightAware Approximate
05:13PM 46.2559 -119.1236 290° West  Level FlightAware Approximate
05:14PM 46.2806 -119.2224 290° West  Level FlightAware Approximate
05:15PM 46.3054 -119.3212 290° West  Level FlightAware Approximate
05:16PM 46.3300 -119.4201 290° West  Level FlightAware Approximate
05:17PM 46.3500 -119.5202 270° West  Level FlightAware Approximate
05:18PM 46.3705 -119.6191 286° West  Level FlightAware Approximate
05:19PM 46.3939 -119.7186 294° West  Level FlightAware Approximate
05:20PM 46.4229 -119.8152 294° West  Level FlightAware Approximate
05:21PM 46.4443 -119.9155 284° West  Level FlightAware Approximate
05:22PM 46.4661 -120.0159 290° West  Level FlightAware Approximate
05:23PM 46.4902 -120.1154 289° West  Level FlightAware Approximate
05:24PM 46.5143 -120.2149 289° West  Level FlightAware Approximate
05:25PM 46.5382 -120.3146 289° West  Level FlightAware Approximate
05:26PM 46.5621 -120.4143 289° West  Level FlightAware Approximate
05:27PM 46.5948 -120.5084 299° West  Level FlightAware Approximate
05:28PM 46.6355 -120.5949 314° West  Level FlightAware Approximate
05:29PM 46.6775 -120.6807 302° West  Level FlightAware Approximate
05:30PM 46.7167 -120.7643 270° West  Level FlightAware Approximate
05:31PM 46.7612 -120.8464 299° West  Level FlightAware Approximate
05:32PM 46.7960 -120.9394 299° West  Level FlightAware Approximate
05:33PM 46.8380 -121.0259 306° West  Level FlightAware Approximate
05:34PM 46.8786 -121.1140 303° West  Level FlightAware Approximate
05:35PM 46.9182 -121.2030 303° West  Level FlightAware Approximate
05:36PM 46.9578 -121.2922 303° West  Level FlightAware Approximate
05:37PM 47.0049 -121.3610 303° West  Level FlightAware Approximate
05:38PM 47.0446 -121.4502 303° West  Level FlightAware Approximate
05:39PM 47.0778 -121.5443 290° West  Level FlightAware Approximate
05:40PM 47.1196 -121.6301 310° West  Level FlightAware Approximate
05:41PM 47.1616 -121.7231 306° West  Level FlightAware Approximate
05:42PM 47.2109 -121.8109 326° Northwest  Level FlightAware Approximate
05:43PM 47.2528 -121.9069 301° West  Level FlightAware Approximate
05:44PM 47.2912 -122.0070 296° West  Level FlightAware Approximate
05:45PM 47.3377 -122.0965 296° West  Level FlightAware Approximate
05:46PM 47.3798 -122.1930 306° West  Level FlightAware Approximate
05:47PM 47.4262 -122.2858 306° West  Level FlightAware Approximate
05:48PM 47.4333 -122.3000 306° West  Level FlightAware Approximate
05:49PM 47.4499 -122.3118 306° West  Level Estimated
05:50PM 47.4499 -122.3118 306° West  Level Estimated
05:51PM 47.4499 -122.3118 306° West  Level Estimated
05:52PM 47.4499 -122.3118 306° West  Level Estimated
05:53PM 47.4499 -122.3118 306° West  Level Estimated
05:54PM 47.4499 -122.3118 306° West  Level Estimated
05:55PM 47.4499 -122.3118 306° West  Level Estimated